Time;durP1;ratioP1;P1;durP2;ratioP2;P2;SDS_P1;SDS_P2;PMS_P1;PMS_P2;Temp;Humidity;BMP_temperature;BMP_pressure;BME280_temperature;BME280_humidity;BME280_pressure;Samples;Min_cycle;Max_cycle;Signal;HPM_P1;HPM_P2
2023/11/29 00:01:11;;;;;;;48.40;20.30;;;;;;;-4.34;80.42;99878.69;105808;1294;58595;-57
2023/11/29 00:03:57;;;;;;;;;;;;;;;-4.30;80.81;99877.28;105835;1293;72625;-57
2023/11/29 00:06:43;;;;;;;41.00;18.80;;;;;;;-4.28;82.00;99878.55;105898;1293;67407;-58
2023/11/29 00:09:29;;;;;;;;;;;;;;;-4.25;80.95;99880.83;105865;1293;71657;-57
2023/11/29 00:12:15;;;;;;;35.50;16.50;;;;;;;-4.22;81.62;99880.09;105842;1293;59551;-58
2023/11/29 00:15:01;;;;;;;;;;;;;;;-4.21;81.67;99876.07;105889;1294;59057;-57
2023/11/29 00:17:47;;;;;;;34.00;17.20;;;;;;;-4.21;81.11;99878.77;105808;1294;72304;-58
2023/11/29 00:20:33;;;;;;;34.60;18.00;;;;;;;-4.24;81.36;99878.85;105845;1293;68541;-58
2023/11/29 00:23:19;;;;;;;;;;;;;;;-4.30;83.36;99877.80;105816;1294;71241;-58
2023/11/29 00:26:05;;;;;;;31.70;16.40;;;;;;;-4.37;81.95;99875.08;105833;1293;58402;-58
2023/11/29 00:28:51;;;;;;;36.70;17.00;;;;;;;-4.44;81.00;99870.31;105818;1294;59102;-58
2023/11/29 00:31:37;;;;;;;30.80;14.20;;;;;;;-4.49;80.67;99866.25;105822;1294;72574;-58
2023/11/29 00:34:23;;;;;;;;;;;;;;;-4.56;80.72;99866.55;105853;1293;68378;-58
2023/11/29 00:37:09;;;;;;;34.60;15.70;;;;;;;-4.60;80.59;99866.40;105811;1293;72541;-58
2023/11/29 00:39:55;;;;;;;31.00;16.20;;;;;;;-4.68;81.18;99870.88;105776;1293;58418;-58
2023/11/29 00:42:42;;;;;;;;;;;;;;;-4.75;80.64;99873.68;105862;1292;60041;-57
2023/11/29 00:45:28;;;;;;;32.60;16.50;;;;;;;-4.78;80.59;99876.80;105812;1294;73720;-57
2023/11/29 00:48:14;;;;;;;28.60;14.60;;;;;;;-4.79;80.54;99875.73;105867;1293;69070;-57
2023/11/29 00:51:00;;;;;;;32.20;16.00;;;;;;;-4.84;80.30;99876.91;105808;1294;72329;-58
2023/11/29 00:53:46;;;;;;;26.40;14.60;;;;;;;-4.92;80.35;99877.31;105830;1293;58898;-57
2023/11/29 00:56:32;;;;;;;26.30;15.50;;;;;;;-4.95;80.28;99887.62;105801;1294;58850;-58
2023/11/29 00:59:18;;;;;;;29.60;16.70;;;;;;;-5.01;80.25;99888.29;105777;1294;72598;-57
2023/11/29 01:02:04;;;;;;;26.90;15.20;;;;;;;-5.03;80.18;99894.58;105837;1294;67958;-58
2023/11/29 01:04:51;;;;;;;40.80;18.30;;;;;;;-5.04;80.13;99899.09;105838;1293;72402;-58
2023/11/29 01:07:37;;;;;;;31.10;15.70;;;;;;;-5.06;80.00;99904.06;104718;1294;61258;-57
2023/11/29 01:10:23;;;;;;;30.40;17.20;;;;;;;-5.06;80.09;99906.42;104427;1294;60481;-57
2023/11/29 01:13:10;;;;;;;35.30;17.30;;;;;;;-5.05;80.25;99905.60;104381;1296;72514;-57
2023/11/29 01:15:56;;;;;;;37.20;18.70;;;;;;;-5.02;80.26;99907.57;104429;1296;67743;-56
2023/11/29 01:18:43;;;;;;;36.20;17.10;;;;;;;-5.00;80.20;99909.48;104385;1294;71174;-55
2023/11/29 01:21:29;;;;;;;28.90;16.30;;;;;;;-4.97;80.23;99908.90;104392;1294;60484;-56
2023/11/29 01:24:16;;;;;;;35.60;17.00;;;;;;;-4.95;80.32;99909.80;104330;1294;60347;-57
2023/11/29 01:27:02;;;;;;;31.40;16.50;;;;;;;-4.95;80.28;99910.14;104379;1295;72466;-56
2023/11/29 01:29:49;;;;;;;38.20;17.40;;;;;;;-4.92;80.27;99910.26;104329;1294;70858;-57
2023/11/29 01:32:35;;;;;;;30.20;15.20;;;;;;;-4.88;80.47;99913.77;104395;1294;74159;-56
2023/11/29 01:35:21;;;;;;;36.60;17.60;;;;;;;-4.87;80.22;99910.61;104383;1294;60510;-56
2023/11/29 01:38:08;;;;;;;32.40;16.90;;;;;;;-4.84;80.33;99911.70;104419;1294;62925;-56
2023/11/29 01:40:54;;;;;;;35.50;18.40;;;;;;;-4.82;80.48;99907.77;105852;1292;72548;-57
2023/11/29 01:43:40;;;;;;;30.60;16.40;;;;;;;-4.77;80.89;99908.58;105815;1293;67439;-58
2023/11/29 01:46:28;;;;;;;;;;;;;;;-4.74;80.93;99902.30;104720;1296;71185;-57
2023/11/29 01:49:19;;;;;;;31.40;15.70;;;;;;;-4.71;80.70;99901.06;104458;1294;60197;-57
2023/11/29 01:52:06;;;;;;;35.60;16.50;;;;;;;-4.69;80.44;99901.81;104397;1294;60491;-60
2023/11/29 01:54:52;;;;;;;31.60;17.40;;;;;;;-4.67;80.49;99897.31;105848;1294;72338;-57
2023/11/29 01:57:41;;;;;;;36.50;16.90;;;;;;;-4.65;80.61;99903.23;105831;1293;67550;-58
2023/11/29 02:00:27;;;;;;;33.40;17.40;;;;;;;-4.63;80.48;99905.64;105815;1294;71270;-57
2023/11/29 02:03:13;;;;;;;37.00;17.90;;;;;;;-4.61;80.49;99903.86;105836;1294;58306;-57
2023/11/29 02:06:00;;;;;;;31.90;16.50;;;;;;;-4.59;80.49;99904.44;105869;1294;60526;-57
2023/11/29 02:08:46;;;;;;;41.80;17.80;;;;;;;-4.58;80.55;99906.84;105786;1293;72387;-58
2023/11/29 02:11:39;;;;;;;38.50;18.40;;;;;;;-4.56;80.41;99907.75;105840;1292;68228;-58
2023/11/29 02:14:25;;;;;;;33.30;19.00;;;;;;;-4.51;80.49;99913.61;104554;1297;71367;-57
2023/11/29 02:17:12;;;;;;;35.50;18.50;;;;;;;-4.49;80.52;99915.90;104397;1294;60503;-57
2023/11/29 02:19:59;;;;;;;44.40;19.70;;;;;;;-4.47;80.58;99918.14;104454;1294;60414;-57
2023/11/29 02:22:52;;;;;;;36.20;17.90;;;;;;;-4.44;80.49;99917.70;104420;1294;73340;-57
2023/11/29 02:25:38;;;;;;;32.60;18.00;;;;;;;-4.43;80.54;99916.41;104436;1294;67369;-57
2023/11/29 02:28:25;;;;;;;39.60;17.30;;;;;;;-4.41;80.60;99917.83;104441;1294;71276;-55
2023/11/29 02:31:11;;;;;;;39.70;18.10;;;;;;;-4.42;80.51;99911.41;104432;1294;60386;-56
2023/11/29 02:33:58;;;;;;;34.10;20.20;;;;;;;-4.43;80.61;99908.67;104352;1294;61066;-56
2023/11/29 02:36:45;;;;;;;32.20;17.00;;;;;;;-4.44;80.66;99905.80;104379;1292;72380;-55
2023/11/29 02:39:31;;;;;;;27.90;16.70;;;;;;;-4.46;81.05;99907.59;105850;1294;68225;-58
2023/11/29 02:42:17;;;;;;;34.20;17.50;;;;;;;-4.48;80.73;99912.39;105807;1293;71412;-58
2023/11/29 02:45:03;;;;;;;;;;;;;;;-4.48;80.57;99906.33;105874;1293;59210;-57
2023/11/29 02:47:49;;;;;;;34.80;16.90;;;;;;;-4.51;80.49;99904.71;105816;1294;58856;-58
2023/11/29 02:50:35;;;;;;;37.00;17.70;;;;;;;-4.55;80.87;99901.90;105852;1294;72632;-58
2023/11/29 02:53:21;;;;;;;33.30;17.80;;;;;;;-4.58;80.62;99898.10;105840;1294;67506;-58
2023/11/29 02:56:08;;;;;;;;;;;;;;;-4.60;80.58;99897.00;105801;1293;71328;-58
2023/11/29 02:58:54;;;;;;;33.10;17.40;;;;;;;-4.67;80.36;99892.43;105819;1293;58414;-57
2023/11/29 03:01:40;;;;;;;29.40;15.70;;;;;;;-4.75;80.45;99887.33;105863;1292;59001;-57
2023/11/29 03:04:26;;;;;;;31.80;16.50;;;;;;;-4.81;80.68;99888.95;105814;1294;73021;-58
2023/11/29 03:07:12;;;;;;;32.60;15.50;;;;;;;-4.83;80.78;99888.04;105837;1294;67572;-58
2023/11/29 03:09:58;;;;;;;38.30;18.20;;;;;;;-4.85;80.64;99885.27;105789;1292;72470;-58
2023/11/29 03:12:44;;;;;;;;;;;;;;;-4.86;80.62;99887.75;105813;1293;58300;-58
2023/11/29 03:15:30;;;;;;;35.70;18.90;;;;;;;-4.90;80.59;99885.80;104647;1297;60391;-56
2023/11/29 03:18:17;;;;;;;34.70;16.90;;;;;;;-4.95;80.42;99890.30;104414;1297;73244;-56
2023/11/29 03:21:03;;;;;;;35.30;18.50;;;;;;;-5.05;80.32;99884.62;104449;1294;68125;-55
2023/11/29 03:23:50;;;;;;;36.80;17.80;;;;;;;-5.14;80.26;99886.64;104415;1296;72085;-56
2023/11/29 03:26:43;;;;;;;41.80;19.40;;;;;;;-5.22;80.40;99887.38;104387;1294;60925;-57
2023/11/29 03:29:29;;;;;;;31.40;16.90;;;;;;;-5.27;80.54;99897.61;104572;1294;59806;-57
2023/11/29 03:32:15;;;;;;;32.40;17.50;;;;;;;-5.33;80.91;99903.79;104448;1294;71480;-57
2023/11/29 03:35:02;;;;;;;31.50;17.60;;;;;;;-5.38;80.72;99898.56;104406;1294;67263;-56
2023/11/29 03:37:48;;;;;;;34.40;18.10;;;;;;;-5.44;80.63;99900.73;104483;1293;72906;-57
2023/11/29 03:40:35;;;;;;;48.30;21.50;;;;;;;-5.51;80.69;99901.29;104414;1294;60469;-57
2023/11/29 03:43:21;;;;;;;42.60;19.70;;;;;;;-5.50;80.75;99895.61;104485;1294;64133;-57
2023/11/29 03:46:08;;;;;;;32.10;17.30;;;;;;;-5.47;80.56;99891.02;104826;1297;72419;-56
2023/11/29 03:48:54;;;;;;;41.30;22.10;;;;;;;-5.44;80.79;99889.63;104386;1296;67897;-55
2023/11/29 03:51:41;;;;;;;47.00;22.80;;;;;;;-5.42;80.77;99886.35;104442;1296;72002;-55
2023/11/29 03:54:27;;;;;;;54.20;25.20;;;;;;;-5.44;80.48;99882.92;104362;1294;60509;-57
2023/11/29 03:57:14;;;;;;;43.70;20.50;;;;;;;-5.46;80.49;99880.14;104314;1296;60420;-55
2023/11/29 04:00:00;;;;;;;44.60;24.00;;;;;;;-5.48;80.60;99874.54;104412;1294;72515;-57
2023/11/29 04:02:47;;;;;;;49.40;23.00;;;;;;;-5.49;80.78;99877.38;104349;1293;67288;-56
2023/11/29 04:05:33;;;;;;;40.10;22.00;;;;;;;-5.48;80.67;99878.92;104377;1292;72975;-56
2023/11/29 04:08:19;;;;;;;45.90;21.70;;;;;;;-5.46;80.67;99881.00;104384;1293;61624;-56
2023/11/29 04:11:10;;;;;;;37.10;19.20;;;;;;;-5.45;80.70;99875.84;104355;1294;60372;-56
2023/11/29 04:13:56;;;;;;;35.30;18.20;;;;;;;-5.41;81.09;99872.77;104401;1294;74291;-57
2023/11/29 04:16:43;;;;;;;31.10;17.30;;;;;;;-5.35;81.47;99868.45;104432;1296;67513;-57
2023/11/29 04:19:29;;;;;;;41.50;21.30;;;;;;;-5.31;81.03;99866.40;104365;1294;72098;-56
2023/11/29 04:22:15;;;;;;;34.40;18.60;;;;;;;-5.29;81.39;99859.27;104401;1294;61634;-56
2023/11/29 04:25:02;;;;;;;46.60;19.20;;;;;;;-5.26;80.98;99860.72;104416;1296;59152;-56
2023/11/29 04:27:48;;;;;;;36.40;20.50;;;;;;;-5.25;81.08;99854.39;105875;1293;72608;-57
2023/11/29 04:30:34;;;;;;;34.70;16.60;;;;;;;-5.21;80.82;99856.00;105851;1294;67375;-58
2023/11/29 04:33:20;;;;;;;38.30;18.40;;;;;;;-5.17;81.17;99855.62;105795;1293;71387;-58
2023/11/29 04:36:07;;;;;;;37.20;17.70;;;;;;;-5.12;80.91;99850.56;105841;1292;59333;-57
2023/11/29 04:38:53;;;;;;;33.60;17.40;;;;;;;-5.09;80.84;99845.81;105842;1292;59074;-57
2023/11/29 04:41:40;;;;;;;39.70;19.00;;;;;;;-5.07;80.72;99845.22;105837;1292;72446;-58
2023/11/29 04:44:26;;;;;;;37.10;18.50;;;;;;;-5.06;80.53;99839.36;105868;1293;67353;-57
2023/11/29 04:47:14;;;;;;;32.00;18.00;;;;;;;-5.06;80.55;99840.39;105840;1293;71168;-58
2023/11/29 04:50:01;;;;;;;34.00;17.80;;;;;;;-5.06;80.61;99841.23;105795;1294;58830;-58
2023/11/29 04:52:47;;;;;;;33.20;17.80;;;;;;;-5.07;80.63;99842.36;105863;1293;59087;-56
2023/11/29 04:55:33;;;;;;;27.60;15.80;;;;;;;-5.06;80.60;99842.21;105861;1295;72078;-57
2023/11/29 04:58:22;;;;;;;32.70;17.10;;;;;;;-5.08;80.69;99840.14;105827;1293;66447;-58
2023/11/29 05:01:10;;;;;;;35.10;16.30;;;;;;;-5.09;80.79;99842.43;105828;1292;72529;-54
2023/11/29 05:03:56;;;;;;;35.70;17.90;;;;;;;-5.09;80.68;99843.77;105781;1296;59176;-57
2023/11/29 05:06:43;;;;;;;;;;;;;;;-5.09;80.70;99841.27;105845;1296;59065;-57
2023/11/29 05:09:29;;;;;;;31.10;15.20;;;;;;;-5.07;80.83;99839.67;105830;1293;73616;-58
2023/11/29 05:12:15;;;;;;;39.20;19.40;;;;;;;-5.05;80.91;99836.89;105824;1294;68507;-58
2023/11/29 05:15:01;;;;;;;37.60;17.70;;;;;;;-5.01;81.40;99833.48;105795;1292;72632;-57
2023/11/29 05:17:48;;;;;;;33.40;17.40;;;;;;;-4.96;81.53;99837.83;105827;1295;58080;-57
2023/11/29 05:20:34;;;;;;;33.20;17.30;;;;;;;-4.92;81.11;99835.79;105811;1294;58816;-57
2023/11/29 05:23:21;;;;;;;35.60;16.70;;;;;;;-4.87;81.39;99838.48;105774;1297;72734;-58
2023/11/29 05:26:09;;;;;;;44.50;19.70;;;;;;;-4.82;82.11;99839.34;105786;1294;67931;-58
2023/11/29 05:28:55;;;;;;;42.10;19.60;;;;;;;-4.75;82.21;99839.55;105786;1298;71413;-56
2023/11/29 05:31:41;;;;;;;46.10;20.70;;;;;;;-4.69;82.27;99840.94;105823;1296;58623;-57
2023/11/29 05:34:27;;;;;;;38.00;17.30;;;;;;;-4.63;81.68;99844.61;105829;1296;59824;-58
2023/11/29 05:37:14;;;;;;;;;;;;;;;-4.59;83.35;99837.20;105826;1293;73487;-58
2023/11/29 05:40:00;;;;;;;50.90;22.20;;;;;;;-4.55;82.76;99833.60;105808;1297;68509;-57
2023/11/29 05:42:46;;;;;;;56.60;24.30;;;;;;;-4.53;84.57;99829.83;105786;1294;72736;-57
2023/11/29 05:45:32;;;;;;;60.40;24.30;;;;;;;-4.51;83.46;99823.98;105810;1293;58199;-58
2023/11/29 05:48:18;;;;;;;54.70;22.50;;;;;;;-4.49;83.44;99825.40;105859;1293;59839;-58
2023/11/29 05:51:04;;;;;;;;;;;;;;;-4.46;83.01;99822.28;105832;1293;73299;-58
2023/11/29 05:53:50;;;;;;;63.20;26.70;;;;;;;-4.44;83.12;99821.36;105856;1294;69190;-58
2023/11/29 05:56:36;;;;;;;;;;;;;;;-4.42;82.94;99819.91;105901;1294;71374;-58
2023/11/29 05:59:22;;;;;;;54.60;24.10;;;;;;;-4.41;83.67;99815.57;105470;1292;348663;-57
2023/11/29 06:02:09;;;;;;;74.80;30.50;;;;;;;-4.40;83.35;99811.73;104536;1296;60594;-55
2023/11/29 06:04:55;;;;;;;69.20;28.20;;;;;;;-4.38;82.57;99807.91;104453;1297;74294;-57
2023/11/29 06:07:42;;;;;;;58.70;25.10;;;;;;;-4.37;82.42;99806.61;104475;1294;68421;-56
2023/11/29 06:10:28;;;;;;;74.10;28.30;;;;;;;-4.33;82.97;99810.74;104509;1294;72169;-56
2023/11/29 06:13:17;;;;;;;63.70;25.90;;;;;;;-4.32;82.30;99819.20;104473;1292;60471;-58
2023/11/29 06:16:04;;;;;;;60.80;27.30;;;;;;;-4.30;82.14;99823.14;104488;1292;62070;-58
2023/11/29 06:18:50;;;;;;;60.90;25.50;;;;;;;-4.28;82.22;99820.34;105935;1294;74221;-57
2023/11/29 06:21:37;;;;;;;43.60;20.60;;;;;;;-4.25;82.34;99826.13;105913;1292;68372;-58
2023/11/29 06:24:24;;;;;;;58.80;25.20;;;;;;;-4.24;82.20;99819.94;105905;1294;70523;-58
2023/11/29 06:27:10;;;;;;;49.80;23.40;;;;;;;-4.23;82.06;99820.64;104664;1292;60932;-55
2023/11/29 06:29:57;;;;;;;46.10;20.90;;;;;;;-4.22;82.26;99818.99;104453;1295;60333;-57
2023/11/29 06:32:44;;;;;;;53.50;23.70;;;;;;;-4.22;83.68;99817.15;105903;1292;72474;-59
2023/11/29 06:35:30;;;;;;;42.90;20.50;;;;;;;-4.22;82.87;99820.34;104751;1294;68392;-56
2023/11/29 06:38:16;;;;;;;47.70;20.80;;;;;;;-4.22;82.70;99818.48;104395;1296;72026;-58
2023/11/29 06:41:03;;;;;;;45.90;22.10;;;;;;;-4.24;82.89;99823.15;104509;1293;60499;-57
2023/11/29 06:43:50;;;;;;;47.80;22.90;;;;;;;-4.27;82.57;99828.44;104445;1295;60372;-57
2023/11/29 06:46:39;;;;;;;49.50;22.60;;;;;;;-4.29;82.24;99828.05;104443;1296;72355;-57
2023/11/29 06:49:26;;;;;;;43.20;20.70;;;;;;;-4.31;82.52;99827.98;104481;1291;67638;-60
2023/11/29 06:52:12;;;;;;;43.60;21.40;;;;;;;-4.30;82.36;99836.27;104438;1296;71476;-59
2023/11/29 06:54:59;;;;;;;48.70;22.30;;;;;;;-4.28;82.34;99832.77;104388;1293;62800;-61
2023/11/29 06:57:46;;;;;;;45.40;23.00;;;;;;;-4.26;82.25;99835.02;104441;1293;59292;-60
2023/11/29 07:00:32;;;;;;;44.30;22.50;;;;;;;-4.24;82.11;99837.94;104492;1297;75125;-60
2023/11/29 07:03:19;;;;;;;41.70;21.40;;;;;;;-4.22;82.07;99840.70;104276;1293;67344;-58
2023/11/29 07:06:07;;;;;;;42.00;21.00;;;;;;;-4.20;82.23;99841.59;104402;1292;71284;-60
2023/11/29 07:08:53;;;;;;;43.10;21.50;;;;;;;-4.19;82.09;99842.31;105891;1293;58502;-58
2023/11/29 07:11:39;;;;;;;44.90;20.90;;;;;;;-4.17;82.38;99842.71;105892;1292;58951;-58
2023/11/29 07:14:25;;;;;;;42.70;21.10;;;;;;;-4.12;82.87;99841.66;105844;1292;73524;-58
2023/11/29 07:17:13;;;;;;;41.60;19.80;;;;;;;-4.02;82.94;99840.44;105855;1293;67281;-58
2023/11/29 07:20:04;;;;;;;36.60;19.70;;;;;;;-3.87;83.91;99841.88;105902;1292;71161;-57
2023/11/29 07:22:50;;;;;;;32.80;18.70;;;;;;;-3.67;83.60;99848.04;105859;1293;58479;-58
2023/11/29 07:25:37;;;;;;;;;;;;;;;-3.42;82.89;99843.81;105892;1296;59103;-58
2023/11/29 07:28:27;;;;;;;34.20;18.30;;;;;;;-3.20;83.43;99848.29;105686;1293;300212;-57
2023/11/29 07:31:13;;;;;;;30.30;17.30;;;;;;;-3.14;83.64;99852.69;105872;1293;67431;-57
2023/11/29 07:33:59;;;;;;;39.40;21.60;;;;;;;-3.09;83.60;99842.85;105838;1293;71290;-59
2023/11/29 07:36:51;;;;;;;35.20;19.40;;;;;;;-2.88;83.48;99843.05;105851;1294;58529;-59
2023/11/29 07:39:37;;;;;;;29.60;17.30;;;;;;;-2.66;83.54;99838.86;105821;1293;59173;-59
2023/11/29 07:42:23;;;;;;;30.40;17.90;;;;;;;-2.48;83.17;99845.36;105834;1293;72360;-59
2023/11/29 07:45:09;;;;;;;;;;;;;;;-2.37;82.96;99846.63;105867;1291;67513;-59
2023/11/29 07:47:55;;;;;;;26.70;16.20;;;;;;;-2.40;82.82;99852.98;105860;1293;72232;-58
2023/11/29 07:50:41;;;;;;;25.70;14.80;;;;;;;-2.46;82.80;99856.20;105859;1292;58332;-58
2023/11/29 07:53:28;;;;;;;23.40;14.40;;;;;;;-2.53;82.87;99862.44;105912;1292;58815;-58
2023/11/29 07:56:14;;;;;;;26.60;15.40;;;;;;;-2.56;82.80;99864.05;105827;1294;73149;-58
2023/11/29 07:59:00;;;;;;;22.60;15.40;;;;;;;-2.56;82.73;99869.95;105851;1292;68515;-58
2023/11/29 08:01:46;;;;;;;;;;;;;;;-2.57;82.80;99864.38;105794;1292;73117;-57
2023/11/29 08:04:33;;;;;;;20.40;12.70;;;;;;;-2.57;82.79;99868.41;105800;1293;58410;-58
2023/11/29 08:07:19;;;;;;;23.70;13.30;;;;;;;-2.59;82.71;99864.16;105885;1292;58900;-58
2023/11/29 08:10:07;;;;;;;22.20;14.70;;;;;;;-2.59;82.67;99860.11;105867;1293;72609;-57
2023/11/29 08:12:53;;;;;;;21.20;13.10;;;;;;;-2.56;82.68;99856.14;105815;1293;67324;-58
2023/11/29 08:15:40;;;;;;;;;;;;;;;-2.56;82.58;99858.98;105807;1293;71522;-58
2023/11/29 08:18:26;;;;;;;20.50;13.00;;;;;;;-2.48;82.36;99862.05;105861;1293;59495;-58
2023/11/29 08:21:13;;;;;;;21.00;12.70;;;;;;;-2.39;81.94;99857.71;105864;1293;58840;-58
2023/11/29 08:23:59;;;;;;;22.00;13.70;;;;;;;-2.37;82.01;99855.25;105819;1293;73512;-58
2023/11/29 08:26:46;;;;;;;20.50;13.00;;;;;;;-2.36;82.21;99855.77;105748;1292;67456;-57
2023/11/29 08:29:32;;;;;;;20.90;13.00;;;;;;;-2.34;82.29;99856.33;105853;1293;71399;-58
2023/11/29 08:32:18;;;;;;;;;;;;;;;-2.34;82.01;99854.64;105865;1291;58646;-58
2023/11/29 08:35:05;;;;;;;18.50;12.50;;;;;;;-2.34;82.30;99850.09;105850;1293;59704;-58
2023/11/29 08:37:51;;;;;;;18.10;11.90;;;;;;;-2.30;82.07;99848.83;105861;1294;72557;-58
2023/11/29 08:40:37;;;;;;;24.70;15.20;;;;;;;-2.23;82.08;99849.84;105861;1294;67885;-58
2023/11/29 08:43:23;;;;;;;;;;;;;;;-2.07;82.23;99848.84;105905;1293;72397;-58
2023/11/29 08:46:09;;;;;;;;;;;;;;;-1.78;81.95;99851.48;105852;1293;58755;-59
2023/11/29 08:48:55;;;;;;;20.40;14.00;;;;;;;-1.50;82.27;99850.17;105946;1293;59985;-58
2023/11/29 08:51:42;;;;;;;19.80;13.50;;;;;;;-1.08;82.47;99849.80;105918;1292;73581;-57
2023/11/29 08:54:29;;;;;;;18.90;12.90;;;;;;;-0.83;81.31;99849.89;105938;1293;68219;-58
2023/11/29 08:57:15;;;;;;;;;;;;;;;-0.81;81.83;99852.13;105917;1293;71188;-58
2023/11/29 09:00:00;;;;;;;;;;;;;;;-0.78;81.45;99856.23;105945;1294;58561;-58
2023/11/29 09:02:46;;;;;;;;;;;;;;;-0.92;80.11;99853.95;105970;1292;60024;-59
2023/11/29 09:05:32;;;;;;;;;;;;;;;-0.64;81.66;99855.63;105944;1293;73121;-58
2023/11/29 09:08:20;;;;;;;;;;;;;;;-0.22;81.61;99847.30;105964;1292;67166;-59
2023/11/29 09:11:06;;;;;;;14.10;10.60;;;;;;;0.16;81.06;99843.92;105939;1293;71440;-58
2023/11/29 09:13:52;;;;;;;14.60;10.40;;;;;;;0.13;80.19;99846.42;105937;1292;58906;-58
2023/11/29 09:16:38;;;;;;;16.30;11.00;;;;;;;-0.16;80.73;99841.64;105944;1293;58865;-57
2023/11/29 09:19:24;;;;;;;18.60;13.00;;;;;;;-0.42;81.42;99844.45;105949;1293;74600;-58
2023/11/29 09:22:11;;;;;;;16.30;11.30;;;;;;;-0.71;80.19;99844.34;105898;1293;67488;-58
2023/11/29 09:24:57;;;;;;;19.90;12.60;;;;;;;-1.01;80.19;99840.11;105926;1292;71386;-59
2023/11/29 09:27:43;;;;;;;20.00;12.40;;;;;;;-1.23;79.85;99838.36;105697;1292;58177;-56
2023/11/29 09:30:30;;;;;;;14.20;10.90;;;;;;;-1.33;80.30;99836.80;104511;1293;60435;-56
2023/11/29 09:33:16;;;;;;;21.00;13.20;;;;;;;-1.47;80.61;99838.56;104475;1293;75381;-57
2023/11/29 09:36:03;;;;;;;;;;;;;;;-1.58;80.01;99829.40;104458;1293;67149;-58
2023/11/29 09:38:50;;;;;;;20.00;11.90;;;;;;;-1.69;80.16;99829.37;105653;1292;74266;-58
2023/11/29 09:41:36;;;;;;;;;;;;;;;-1.76;80.14;99827.02;105947;1293;58598;-58
2023/11/29 09:44:25;;;;;;;21.60;13.80;;;;;;;-1.78;80.43;99827.48;105926;1294;58890;-59
2023/11/29 09:47:11;;;;;;;20.30;12.40;;;;;;;-1.76;80.39;99823.33;105769;1292;73666;-58
2023/11/29 09:49:59;;;;;;;22.60;13.50;;;;;;;-1.73;80.52;99821.69;104535;1293;70304;-56
2023/11/29 09:52:46;;;;;;;20.00;11.90;;;;;;;-1.64;80.32;99825.08;98416;1292;5003378;-57
2023/11/29 09:55:33;;;;;;;21.20;14.00;;;;;;;-1.49;80.38;99827.20;105934;1292;58687;-58
2023/11/29 09:58:19;;;;;;;19.70;10.60;;;;;;;-1.35;80.51;99824.77;104653;1292;60265;-58
2023/11/29 10:01:06;;;;;;;20.50;13.50;;;;;;;-1.21;79.48;99820.64;104525;1293;72373;-58
2023/11/29 10:04:05;;;;;;;17.00;12.50;;;;;;;-0.99;80.09;99820.02;104508;1294;67354;-58
2023/11/29 10:06:52;;;;;;;17.90;12.70;;;;;;;-0.83;80.11;99817.56;104457;1293;73978;-58
2023/11/29 10:09:38;;;;;;;;;;;;;;;-0.83;80.58;99809.95;104432;1294;60520;-57
2023/11/29 10:12:25;;;;;;;32.40;15.70;;;;;;;-0.90;80.44;99806.96;104468;1294;60597;-58
2023/11/29 10:15:11;;;;;;;20.60;12.50;;;;;;;-1.07;79.66;99804.00;104449;1294;72431;-58
2023/11/29 10:17:58;;;;;;;15.70;10.30;;;;;;;-1.12;80.20;99802.90;104504;1291;70051;-58
2023/11/29 10:20:48;;;;;;;16.40;10.70;;;;;;;-1.12;79.85;99804.58;104476;1294;73960;-58
2023/11/29 10:23:39;;;;;;;19.30;10.80;;;;;;;-1.11;80.03;99803.59;104519;1293;60695;-58
2023/11/29 10:26:27;;;;;;;22.80;12.50;;;;;;;-1.05;80.08;99798.77;104547;1294;60585;-56
2023/11/29 10:29:13;;;;;;;19.80;9.60;;;;;;;-1.02;79.53;99801.00;105908;1293;72462;-60
2023/11/29 10:32:00;;;;;;;;;;;;;;;-1.10;78.55;99802.77;104612;1294;68235;-57
2023/11/29 10:34:47;;;;;;;15.20;9.90;;;;;;;-1.14;79.03;99797.11;104581;1296;71201;-58
2023/11/29 10:37:35;;;;;;;17.00;11.00;;;;;;;-1.13;79.37;99794.23;104685;1294;60579;-56
2023/11/29 10:40:21;;;;;;;14.30;9.70;;;;;;;-1.09;79.40;99788.91;104454;1294;60923;-58
2023/11/29 10:43:12;;;;;;;20.40;11.90;;;;;;;-1.02;79.61;99785.63;104524;1292;73251;-59
2023/11/29 10:46:07;;;;;;;15.90;11.00;;;;;;;-0.93;78.91;99784.06;104511;1296;67209;-58
2023/11/29 10:49:32;;;;;;;16.00;9.40;;;;;;;-0.81;78.70;99779.88;104529;1293;72316;-59
2023/11/29 10:52:19;;;;;;;12.10;7.80;;;;;;;-0.71;77.33;99771.91;104112;1299;59626;-56
2023/11/29 10:55:06;;;;;;;14.00;9.00;;;;;;;-0.61;77.47;99766.64;104044;1300;61077;-59
2023/11/29 10:57:59;;;;;;;16.70;9.60;;;;;;;-0.43;78.47;99767.57;105435;1297;73733;-58
2023/11/29 11:00:45;;;;;;;11.20;8.10;;;;;;;-0.38;76.84;99764.60;105479;1299;68312;-59
2023/11/29 11:03:39;;;;;;;15.70;10.20;;;;;;;-0.38;77.41;99761.21;105465;1297;72027;-60
2023/11/29 11:06:29;;;;;;;12.90;9.10;;;;;;;-0.32;77.68;99757.06;105226;1298;59175;-59
2023/11/29 11:09:44;;;;;;;16.10;9.20;;;;;;;-0.27;77.29;99752.90;104075;1297;60438;-58
2023/11/29 11:12:34;;;;;;;14.10;9.30;;;;;;;-0.29;76.02;99756.43;104045;1300;72383;-60
2023/11/29 11:15:25;;;;;;;12.50;9.00;;;;;;;-0.17;77.48;99751.52;104049;1297;69969;-59
2023/11/29 11:18:14;;;;;;;10.60;8.50;;;;;;;-0.09;77.37;99753.66;104038;1297;71870;-58
2023/11/29 11:21:03;;;;;;;14.60;8.60;;;;;;;-0.09;76.79;99747.73;104055;1297;60451;-59
2023/11/29 11:23:50;;;;;;;19.40;9.20;;;;;;;-0.14;76.02;99747.83;104104;1299;60521;-59
2023/11/29 11:26:37;;;;;;;16.60;10.10;;;;;;;-0.35;73.96;99743.31;105726;1292;72674;-58
2023/11/29 11:29:31;;;;;;;13.50;9.10;;;;;;;-0.40;76.09;99737.65;105969;1292;68667;-60
2023/11/29 11:32:35;;;;;;;12.00;8.90;;;;;;;-0.40;75.33;99737.31;105926;1293;71195;-59
2023/11/29 11:35:40;;;;;;;14.50;10.20;;;;;;;-0.46;74.89;99734.01;105795;1292;58679;-60
2023/11/29 11:38:26;;;;;;;13.30;8.90;;;;;;;-0.59;74.73;99743.33;105886;1296;58861;-59
2023/11/29 11:41:13;;;;;;;19.40;10.70;;;;;;;-0.70;75.55;99733.35;105883;1292;73746;-60
2023/11/29 11:43:59;;;;;;;20.60;10.40;;;;;;;-0.77;75.78;99733.76;105878;1293;67403;-60
2023/11/29 11:46:48;;;;;;;14.90;10.10;;;;;;;-0.76;76.34;99733.42;105875;1292;71800;-60
2023/11/29 11:49:34;;;;;;;15.90;9.00;;;;;;;-0.84;75.15;99732.30;105868;1293;58141;-59
2023/11/29 11:52:20;;;;;;;16.20;9.90;;;;;;;-0.91;76.03;99728.29;105931;1292;58866;-59
2023/11/29 11:55:08;;;;;;;13.20;8.70;;;;;;;-0.93;76.12;99725.38;105903;1293;72478;-60
2023/11/29 11:57:58;;;;;;;16.20;9.90;;;;;;;-0.96;75.29;99725.50;105882;1292;69094;-59
2023/11/29 12:00:45;;;;;;;14.20;9.60;;;;;;;-0.88;76.38;99715.64;105900;1293;72671;-60
2023/11/29 12:03:31;;;;;;;17.50;9.50;;;;;;;-0.81;76.72;99715.75;105915;1292;58700;-59
2023/11/29 12:06:18;;;;;;;15.80;9.60;;;;;;;-0.82;75.98;99721.33;105851;1293;58897;-60
2023/11/29 12:09:04;;;;;;;16.80;10.60;;;;;;;-0.84;76.14;99714.52;105875;1292;72375;-59
2023/11/29 12:11:50;;;;;;;;;;;;;;;-0.88;76.16;99713.95;105910;1293;67469;-58
2023/11/29 12:14:40;;;;;;;16.70;10.70;;;;;;;-0.92;76.64;99706.79;105879;1292;71747;-59
2023/11/29 12:17:32;;;;;;;14.40;10.00;;;;;;;-0.96;76.37;99709.77;105883;1292;58235;-59
2023/11/29 12:20:18;;;;;;;17.50;10.30;;;;;;;-1.03;75.74;99712.20;105839;1292;58850;-59
2023/11/29 12:23:05;;;;;;;;;;;;;;;-1.08;76.47;99708.59;105883;1293;72360;-57
2023/11/29 12:25:56;;;;;;;14.90;9.80;;;;;;;-1.10;76.74;99705.52;105785;1293;69274;-57
2023/11/29 12:28:42;;;;;;;22.00;10.90;;;;;;;-1.13;76.36;99700.73;104429;1293;71485;-57
2023/11/29 12:31:36;;;;;;;18.30;11.90;;;;;;;-1.12;76.55;99702.09;104404;1293;60385;-57
2023/11/29 12:34:22;;;;;;;20.20;12.50;;;;;;;-1.13;76.37;99694.47;105849;1292;58852;-58
2023/11/29 12:37:15;;;;;;;17.10;10.90;;;;;;;-1.11;76.87;99688.92;105907;1293;72655;-59
2023/11/29 12:40:04;;;;;;;19.50;10.10;;;;;;;-1.10;76.41;99686.58;105545;1294;68578;-57
2023/11/29 12:42:50;;;;;;;16.10;10.50;;;;;;;-1.08;76.03;99692.03;105756;1294;71392;-58
2023/11/29 12:45:36;;;;;;;19.70;11.40;;;;;;;-1.05;76.45;99691.39;105760;1292;58950;-56
2023/11/29 12:48:23;;;;;;;18.90;11.60;;;;;;;-1.02;75.91;99690.89;105857;1292;58868;-57
2023/11/29 12:51:13;;;;;;;19.20;11.90;;;;;;;-0.98;76.39;99686.05;105825;1293;72490;-55